createdAt,value
2018-01-29T00:00:24.786Z,8.03
2018-01-29T00:01:24.708Z,8.04
2018-01-29T00:02:24.629Z,7.97
2018-01-29T00:03:24.551Z,8.06
2018-01-29T00:04:24.472Z,8.03
2018-01-29T00:05:24.393Z,8.03
2018-01-29T00:06:24.369Z,8.06
2018-01-29T00:07:24.236Z,8.12
2018-01-29T00:08:24.158Z,8.11
2018-01-29T00:09:24.077Z,8.18
2018-01-29T00:10:24.001Z,8.12
2018-01-29T00:11:23.922Z,8.11
2018-01-29T00:12:23.843Z,8.07
2018-01-29T00:13:23.762Z,8.07
2018-01-29T00:14:23.685Z,8.12
2018-01-29T00:15:23.606Z,8.07
2018-01-29T00:16:23.528Z,8.01
2018-01-29T00:17:23.448Z,8.01
2018-01-29T00:18:23.370Z,8.04
2018-01-29T00:19:23.291Z,8.00
2018-01-29T00:20:23.213Z,8.03
2018-01-29T00:21:23.134Z,8.17
2018-01-29T00:22:23.057Z,8.15
2018-01-29T00:23:22.977Z,8.14
2018-01-29T00:24:22.898Z,8.14
2018-01-29T00:25:22.819Z,8.14
2018-01-29T00:26:22.740Z,8.14
2018-01-29T00:27:22.812Z,8.14
2018-01-29T00:28:22.583Z,8.06
2018-01-29T00:29:22.504Z,8.11
2018-01-29T00:30:22.425Z,8.01
2018-01-29T00:31:22.347Z,8.03
2018-01-29T00:32:22.268Z,8.04
2018-01-29T00:33:22.189Z,8.00
2018-01-29T00:34:22.111Z,8.06
2018-01-29T00:35:22.032Z,8.04
2018-01-29T00:36:21.954Z,8.07
2018-01-29T00:37:21.874Z,8.09
2018-01-29T00:38:21.796Z,8.07
2018-01-29T00:39:21.717Z,8.06
2018-01-29T00:40:21.639Z,7.96
2018-01-29T00:41:21.559Z,8.06
2018-01-29T00:42:21.480Z,7.96
2018-01-29T00:43:21.403Z,7.99
2018-01-29T00:44:21.324Z,8.04
2018-01-29T00:45:21.247Z,7.97
2018-01-29T00:46:21.166Z,7.97
2018-01-29T00:47:21.088Z,7.96
2018-01-29T00:48:21.010Z,8.04
2018-01-29T00:49:20.930Z,7.99
2018-01-29T00:50:20.852Z,8.04
2018-01-29T00:51:20.774Z,8.06
2018-01-29T00:52:20.696Z,7.99
2018-01-29T00:53:20.620Z,7.94
2018-01-29T00:54:20.538Z,7.97
2018-01-29T00:55:20.459Z,7.96
2018-01-29T00:56:20.381Z,7.96
2018-01-29T00:57:20.301Z,7.86
2018-01-29T00:58:20.223Z,7.97
2018-01-29T00:59:20.145Z,7.86
2018-01-29T01:00:20.067Z,7.97
2018-01-29T01:01:19.988Z,7.94
2018-01-29T01:02:19.910Z,7.86
2018-01-29T01:03:19.832Z,7.94
2018-01-29T01:04:19.753Z,7.93
2018-01-29T01:05:19.675Z,7.93
2018-01-29T01:06:19.596Z,7.83
2018-01-29T01:07:19.517Z,7.96
2018-01-29T01:08:19.439Z,7.86
2018-01-29T01:09:19.359Z,7.97
2018-01-29T01:10:19.284Z,7.97
2018-01-29T01:11:19.204Z,7.96
2018-01-29T01:12:19.125Z,7.97
2018-01-29T01:13:19.046Z,7.91
2018-01-29T01:14:18.968Z,7.86
2018-01-29T01:15:18.889Z,7.94
2018-01-29T01:16:18.809Z,8.00
2018-01-29T01:17:18.731Z,7.97
2018-01-29T01:18:18.803Z,7.97
2018-01-29T01:19:18.574Z,7.96
2018-01-29T01:20:18.494Z,8.07
2018-01-29T01:21:18.416Z,7.97
2018-01-29T01:22:18.336Z,7.93
2018-01-29T01:23:18.259Z,8.11
2018-01-29T01:24:18.181Z,7.97
2018-01-29T01:25:18.106Z,8.00
2018-01-29T01:26:18.026Z,7.99
2018-01-29T01:27:17.949Z,7.96
2018-01-29T01:28:17.866Z,8.09
2018-01-29T01:29:17.790Z,8.04
2018-01-29T01:30:17.709Z,8.01
2018-01-29T01:31:17.630Z,8.06
2018-01-29T01:32:17.551Z,8.01
2018-01-29T01:33:17.472Z,8.09
2018-01-29T01:34:17.394Z,8.06
2018-01-29T01:35:17.315Z,8.00
2018-01-29T01:36:17.236Z,8.00
2018-01-29T01:37:17.156Z,8.00
2018-01-29T01:38:17.078Z,8.03
2018-01-29T01:39:16.999Z,8.01
2018-01-29T01:40:16.922Z,8.06
2018-01-29T01:41:16.842Z,8.04
2018-01-29T01:42:16.765Z,8.06
2018-01-29T01:43:16.685Z,8.07
2018-01-29T01:44:16.608Z,8.07
2018-01-29T01:45:16.526Z,7.96
2018-01-29T01:46:16.449Z,8.00
2018-01-29T01:47:16.370Z,8.01
2018-01-29T01:48:16.292Z,8.00
2018-01-29T01:49:16.212Z,8.07
2018-01-29T01:50:16.133Z,8.01
2018-01-29T01:51:16.056Z,8.00
2018-01-29T01:52:15.977Z,7.97
2018-01-29T01:53:15.897Z,8.04
2018-01-29T01:54:15.819Z,8.07
2018-01-29T01:55:15.741Z,8.06
2018-01-29T01:56:15.664Z,8.01
2018-01-29T01:57:15.582Z,8.07
2018-01-29T01:58:15.504Z,8.01
2018-01-29T01:59:15.426Z,8.07
2018-01-29T02:00:15.346Z,8.04
2018-01-29T02:01:15.267Z,8.00
2018-01-29T02:02:15.190Z,8.03
2018-01-29T02:03:15.112Z,8.04
2018-01-29T02:04:15.032Z,8.00
2018-01-29T02:05:14.953Z,7.97
2018-01-29T02:06:14.875Z,7.97
2018-01-29T02:07:14.797Z,7.94
2018-01-29T02:08:14.718Z,7.90
2018-01-29T02:09:14.639Z,7.99
2018-01-29T02:10:14.560Z,8.00
2018-01-29T02:11:14.482Z,7.96
2018-01-29T02:12:14.403Z,7.94
2018-01-29T02:13:14.324Z,7.94
2018-01-29T02:14:14.245Z,7.96
2018-01-29T02:15:14.167Z,8.00
2018-01-29T02:16:14.088Z,8.00
2018-01-29T02:17:14.010Z,7.94
2018-01-29T02:18:13.931Z,7.97
2018-01-29T02:19:13.851Z,7.97
2018-01-29T02:21:13.695Z,7.86
2018-01-29T02:22:13.616Z,7.86
2018-01-29T02:23:13.541Z,7.93
2018-01-29T02:24:13.460Z,7.97
2018-01-29T02:25:13.383Z,7.96
2018-01-29T02:26:13.301Z,7.94
2018-01-29T02:27:13.223Z,7.97
2018-01-29T02:28:13.148Z,7.96
2018-01-29T02:29:13.065Z,7.96
2018-01-29T02:30:12.988Z,8.04
2018-01-29T02:31:12.909Z,7.94
2018-01-29T02:32:12.830Z,7.97
2018-01-29T02:33:12.750Z,7.97
2018-01-29T02:34:12.674Z,7.96
2018-01-29T02:35:12.595Z,7.97
2018-01-29T02:36:12.517Z,7.94
2018-01-29T02:37:12.437Z,7.93
2018-01-29T02:38:12.360Z,7.93
2018-01-29T02:39:12.281Z,7.97
2018-01-29T02:40:12.202Z,7.85
2018-01-29T02:41:12.124Z,7.90
2018-01-29T02:42:12.046Z,7.94
2018-01-29T02:43:11.967Z,7.91
2018-01-29T02:44:11.889Z,7.91
2018-01-29T02:45:11.810Z,7.99
2018-01-29T02:46:11.733Z,7.88
2018-01-29T02:47:11.653Z,7.93
2018-01-29T02:48:11.575Z,7.85
2018-01-29T02:49:11.495Z,7.86
2018-01-29T02:50:11.419Z,7.96
2018-01-29T02:51:11.339Z,7.99
2018-01-29T02:52:11.261Z,7.97
2018-01-29T02:53:11.181Z,7.85
2018-01-29T02:54:11.102Z,7.94
2018-01-29T02:55:11.024Z,7.97
2018-01-29T02:56:10.945Z,7.99
2018-01-29T02:57:10.866Z,7.96
2018-01-29T02:58:10.788Z,8.00
2018-01-29T02:59:10.710Z,7.97
2018-01-29T03:00:10.632Z,8.00
2018-01-29T03:01:10.560Z,7.97
2018-01-29T03:02:10.473Z,7.99
2018-01-29T03:03:10.398Z,7.99
2018-01-29T03:04:10.323Z,7.97
2018-01-29T03:05:10.237Z,7.97
2018-01-29T03:06:10.159Z,7.94
2018-01-29T03:07:10.081Z,7.96
2018-01-29T03:08:10.002Z,8.03
2018-01-29T03:09:09.922Z,7.99
2018-01-29T03:10:09.844Z,7.91
2018-01-29T03:11:09.766Z,7.97
2018-01-29T03:12:09.687Z,7.99
2018-01-29T03:13:09.607Z,7.99
2018-01-29T03:14:09.529Z,7.96
2018-01-29T03:15:09.451Z,8.00
2018-01-29T03:16:09.373Z,7.99
2018-01-29T03:17:09.293Z,8.04
2018-01-29T03:18:09.214Z,8.07
2018-01-29T03:19:09.135Z,8.03
2018-01-29T03:20:09.058Z,7.99
2018-01-29T03:21:08.978Z,8.03
2018-01-29T03:22:08.899Z,7.99
2018-01-29T03:23:08.828Z,7.97
2018-01-29T03:24:08.746Z,8.06
2018-01-29T03:25:08.663Z,8.06
2018-01-29T03:26:08.584Z,8.06
2018-01-29T03:27:08.506Z,8.12
2018-01-29T03:28:08.428Z,8.01
2018-01-29T03:29:08.349Z,8.09
2018-01-29T03:30:08.270Z,8.00
2018-01-29T03:31:08.191Z,7.97
2018-01-29T03:32:08.113Z,7.99
2018-01-29T03:33:08.037Z,8.01
2018-01-29T03:34:07.956Z,7.99
2018-01-29T03:35:07.878Z,8.01
2018-01-29T03:36:07.799Z,7.97
2018-01-29T03:37:07.720Z,8.07
2018-01-29T03:38:07.641Z,8.01
2018-01-29T03:39:07.562Z,7.97
2018-01-29T03:40:07.483Z,7.97
2018-01-29T03:41:07.405Z,8.00
2018-01-29T03:42:07.326Z,7.94
2018-01-29T03:43:07.247Z,8.01
2018-01-29T03:44:07.168Z,7.99
2018-01-29T03:45:07.089Z,8.11
2018-01-29T03:46:07.011Z,8.06
2018-01-29T03:47:06.933Z,8.06
2018-01-29T03:48:06.854Z,8.12
2018-01-29T03:49:06.775Z,8.07
2018-01-29T03:50:06.696Z,8.07
2018-01-29T03:51:06.618Z,8.11
2018-01-29T03:52:06.539Z,8.07
2018-01-29T03:53:06.460Z,8.07
2018-01-29T03:54:06.381Z,8.09
2018-01-29T03:55:06.303Z,8.00
2018-01-29T03:56:06.224Z,8.00
2018-01-29T03:57:06.143Z,7.99
2018-01-29T03:58:06.065Z,7.96
2018-01-29T03:59:05.987Z,7.93
2018-01-29T04:00:05.908Z,7.99
2018-01-29T04:01:05.829Z,7.99
2018-01-29T04:02:05.751Z,7.97
2018-01-29T04:03:05.672Z,8.09
2018-01-29T04:04:05.593Z,7.97
2018-01-29T04:05:05.514Z,7.99
2018-01-29T04:06:05.434Z,7.97
2018-01-29T04:07:05.357Z,7.94
2018-01-29T04:08:05.278Z,7.97
2018-01-29T04:09:05.199Z,7.93
2018-01-29T04:10:05.121Z,8.00
2018-01-29T04:11:05.042Z,7.97
2018-01-29T04:12:04.962Z,7.99
2018-01-29T04:13:04.886Z,7.99
2018-01-29T04:14:04.806Z,8.00
2018-01-29T04:15:04.728Z,7.94
2018-01-29T04:16:04.648Z,7.85
2018-01-29T04:17:04.569Z,7.93
2018-01-29T04:18:04.492Z,7.93
2018-01-29T04:19:04.411Z,7.86
2018-01-29T04:20:04.333Z,7.97
2018-01-29T04:21:04.253Z,8.00
2018-01-29T04:22:04.181Z,7.93
2018-01-29T04:23:04.096Z,7.99
2018-01-29T04:24:04.017Z,7.99
2018-01-29T04:25:03.939Z,7.97
2018-01-29T04:26:03.859Z,7.97
2018-01-29T04:27:03.780Z,7.96
2018-01-29T04:28:03.702Z,8.00
2018-01-29T04:29:03.722Z,8.00
2018-01-29T04:30:03.543Z,7.90
2018-01-29T04:31:03.464Z,7.99
2018-01-29T04:32:03.386Z,7.91
2018-01-29T04:33:03.305Z,7.93
2018-01-29T04:34:03.228Z,7.90
2018-01-29T04:35:03.150Z,7.96
2018-01-29T04:36:03.070Z,7.94
2018-01-29T04:37:02.991Z,7.97
2018-01-29T04:38:02.910Z,7.97
2018-01-29T04:39:02.833Z,8.00
2018-01-29T04:40:02.754Z,7.93
2018-01-29T04:41:02.674Z,7.93
2018-01-29T04:42:02.595Z,7.93
2018-01-29T04:43:02.520Z,7.90
2018-01-29T04:44:02.437Z,7.97
2018-01-29T04:45:02.358Z,7.99
2018-01-29T04:46:02.279Z,8.00
2018-01-29T04:47:02.201Z,8.00
2018-01-29T04:48:02.121Z,7.97
2018-01-29T04:49:02.042Z,7.96
2018-01-29T04:50:01.964Z,7.96
2018-01-29T04:51:01.884Z,7.97
2018-01-29T04:52:01.804Z,8.03
2018-01-29T04:53:01.725Z,8.01
2018-01-29T04:54:01.646Z,8.11
2018-01-29T04:55:01.568Z,8.00
2018-01-29T04:56:01.490Z,8.06
2018-01-29T04:57:01.408Z,8.09
2018-01-29T04:58:01.330Z,7.99
2018-01-29T04:59:01.260Z,8.01
2018-01-29T05:00:01.173Z,8.01
2018-01-29T05:01:01.093Z,8.03
2018-01-29T05:02:01.013Z,8.03
2018-01-29T05:03:00.937Z,8.07
2018-01-29T05:04:00.855Z,8.00
2018-01-29T05:05:00.776Z,8.09
2018-01-29T05:06:00.697Z,8.04
2018-01-29T05:07:00.618Z,8.03
2018-01-29T05:08:00.540Z,8.06
2018-01-29T05:09:00.459Z,8.21
2018-01-29T05:10:00.380Z,8.22
2018-01-29T05:11:00.301Z,8.19
2018-01-29T05:12:00.222Z,8.14
2018-01-29T05:13:00.143Z,8.15
2018-01-29T05:14:00.064Z,8.18
2018-01-29T05:15:00.035Z,8.15
2018-01-29T05:15:59.906Z,8.17
2018-01-29T05:16:59.827Z,8.01
2018-01-29T05:17:59.748Z,8.04
2018-01-29T05:18:59.669Z,8.11
2018-01-29T05:19:59.590Z,8.06
2018-01-29T05:20:59.511Z,8.00
2018-01-29T05:21:59.432Z,8.01
2018-01-29T05:22:59.353Z,8.04
2018-01-29T05:23:59.275Z,8.06
2018-01-29T05:24:59.195Z,8.06
2018-01-29T05:25:59.116Z,8.00
2018-01-29T05:26:59.038Z,8.03
2018-01-29T05:27:58.959Z,8.03
2018-01-29T05:28:58.879Z,8.04
2018-01-29T05:29:58.801Z,8.09
2018-01-29T05:30:58.722Z,8.04
2018-01-29T05:31:58.643Z,8.07
2018-01-29T05:32:58.563Z,8.00
2018-01-29T05:33:58.485Z,8.07
2018-01-29T05:34:58.406Z,8.09
2018-01-29T05:35:58.326Z,8.09
2018-01-29T05:36:58.248Z,8.11
2018-01-29T05:37:58.169Z,8.04
2018-01-29T05:38:58.090Z,8.03
2018-01-29T05:39:58.018Z,8.09
2018-01-29T05:40:57.932Z,8.06
2018-01-29T05:41:57.854Z,8.12
2018-01-29T05:42:57.775Z,8.09
2018-01-29T05:43:57.696Z,8.00
2018-01-29T05:44:57.617Z,7.96
2018-01-29T05:45:57.541Z,8.01
2018-01-29T05:46:57.460Z,7.99
2018-01-29T05:47:57.382Z,8.06
2018-01-29T05:48:57.302Z,7.94
2018-01-29T05:49:57.223Z,8.00
2018-01-29T05:50:57.145Z,7.86
2018-01-29T05:51:57.066Z,7.99
2018-01-29T05:52:56.986Z,7.93
2018-01-29T05:53:56.907Z,7.88
2018-01-29T05:54:56.829Z,7.90
2018-01-29T05:55:56.751Z,7.83
2018-01-29T05:56:56.671Z,7.85
2018-01-29T05:57:56.592Z,7.94
2018-01-29T05:58:56.513Z,7.88
2018-01-29T05:59:56.434Z,7.85
2018-01-29T06:00:56.354Z,7.94
2018-01-29T06:01:56.274Z,7.88
2018-01-29T06:02:56.218Z,7.93
2018-01-29T06:03:56.118Z,7.96
2018-01-29T06:04:56.038Z,7.90
2018-01-29T06:05:55.961Z,7.94
2018-01-29T06:06:55.879Z,7.94
2018-01-29T06:07:55.800Z,7.99
2018-01-29T06:08:55.722Z,7.97
2018-01-29T06:09:55.643Z,8.01
2018-01-29T06:10:55.564Z,8.01
2018-01-29T06:11:55.486Z,8.06
2018-01-29T06:12:55.406Z,8.04
2018-01-29T06:13:55.327Z,8.01
2018-01-29T06:14:55.248Z,8.09
2018-01-29T06:15:55.170Z,8.07
2018-01-29T06:16:55.091Z,7.97
2018-01-29T06:17:55.012Z,8.00
2018-01-29T06:18:54.933Z,8.01
2018-01-29T06:19:54.854Z,8.07
2018-01-29T06:20:54.775Z,8.04
2018-01-29T06:21:54.696Z,8.06
2018-01-29T06:22:54.618Z,8.04
2018-01-29T06:23:54.538Z,8.01
2018-01-29T06:24:54.459Z,7.97
2018-01-29T06:25:54.380Z,7.94
2018-01-29T06:26:54.302Z,7.99
2018-01-29T06:27:54.221Z,7.93
2018-01-29T06:28:54.142Z,8.00
2018-01-29T06:29:54.067Z,8.00
2018-01-29T06:30:53.985Z,7.94
2018-01-29T06:31:53.906Z,7.97
2018-01-29T06:32:53.827Z,7.96
2018-01-29T06:33:53.748Z,7.96
2018-01-29T06:34:53.669Z,7.96
2018-01-29T06:35:53.591Z,7.99
2018-01-29T06:36:53.511Z,7.97
2018-01-29T06:37:53.432Z,7.94
2018-01-29T06:38:53.353Z,7.90
2018-01-29T06:39:53.275Z,7.97
2018-01-29T06:40:53.195Z,8.00
2018-01-29T06:41:53.117Z,7.97
2018-01-29T06:42:53.038Z,8.00
2018-01-29T06:43:52.959Z,7.94
2018-01-29T06:44:52.879Z,7.97
2018-01-29T06:45:52.801Z,7.99
2018-01-29T06:46:52.721Z,8.00
2018-01-29T06:47:52.643Z,8.00
2018-01-29T06:48:52.563Z,8.00
2018-01-29T06:49:52.485Z,8.00
2018-01-29T06:50:52.413Z,7.99
2018-01-29T06:51:52.328Z,8.06
2018-01-29T06:52:52.248Z,8.09
2018-01-29T06:53:52.169Z,8.06
2018-01-29T06:54:52.091Z,8.06
2018-01-29T06:55:52.012Z,8.04
2018-01-29T06:56:51.932Z,8.06
2018-01-29T06:57:51.855Z,8.06
2018-01-29T06:58:51.776Z,8.06
2018-01-29T06:59:51.699Z,7.94
2018-01-29T07:00:51.617Z,7.97
2018-01-29T07:01:51.538Z,8.04
2018-01-29T07:02:51.460Z,7.94
2018-01-29T07:03:51.382Z,7.97
2018-01-29T07:04:51.302Z,7.99
2018-01-29T07:05:51.223Z,8.03
2018-01-29T07:06:51.144Z,8.00
2018-01-29T07:07:51.066Z,7.93
2018-01-29T07:08:50.987Z,7.99
2018-01-29T07:09:50.908Z,7.86
2018-01-29T07:10:50.829Z,7.99
2018-01-29T07:11:50.749Z,7.85
2018-01-29T07:12:50.670Z,7.88
2018-01-29T07:13:50.592Z,7.86
2018-01-29T07:14:50.513Z,7.88
2018-01-29T07:15:50.434Z,7.94
2018-01-29T07:16:50.353Z,7.99
2018-01-29T07:17:50.275Z,8.00
2018-01-29T07:18:50.196Z,7.96
2018-01-29T07:19:50.118Z,7.90
2018-01-29T07:20:50.039Z,7.88
2018-01-29T07:21:49.959Z,7.83
2018-01-29T07:22:49.880Z,8.00
2018-01-29T07:23:49.802Z,7.99
2018-01-29T07:24:49.721Z,7.88
2018-01-29T07:25:49.643Z,7.86
2018-01-29T07:26:49.564Z,7.94
2018-01-29T07:27:49.486Z,7.96
2018-01-29T07:28:49.407Z,7.97
2018-01-29T07:29:49.328Z,8.03
2018-01-29T07:30:49.249Z,8.07
2018-01-29T07:31:49.170Z,7.93
2018-01-29T07:32:49.090Z,8.01
2018-01-29T07:33:49.011Z,8.04
2018-01-29T07:34:48.933Z,8.04
2018-01-29T07:35:48.854Z,8.06
2018-01-29T07:36:48.775Z,8.07
2018-01-29T07:37:48.696Z,8.04
2018-01-29T07:38:48.617Z,8.00
2018-01-29T07:39:48.539Z,8.17
2018-01-29T07:40:48.458Z,7.99
2018-01-29T07:41:48.380Z,8.01
2018-01-29T07:42:48.301Z,8.03
2018-01-29T07:43:48.222Z,8.01
2018-01-29T07:44:48.143Z,8.04
2018-01-29T07:45:48.064Z,8.07
2018-01-29T07:46:47.985Z,8.09
2018-01-29T07:47:47.906Z,8.11
2018-01-29T07:48:47.826Z,8.21
2018-01-29T07:49:47.747Z,8.15
2018-01-29T07:50:47.669Z,8.25
2018-01-29T07:51:47.590Z,8.19
2018-01-29T07:52:47.511Z,8.22
2018-01-29T07:53:47.432Z,8.27
2018-01-29T07:54:47.353Z,8.21
2018-01-29T07:55:47.274Z,8.17
2018-01-29T07:56:47.194Z,8.18
2018-01-29T07:57:47.115Z,8.24
2018-01-29T07:58:47.037Z,8.24
2018-01-29T07:59:46.958Z,8.21
2018-01-29T08:00:46.879Z,8.21
2018-01-29T08:01:46.799Z,8.25
2018-01-29T08:02:46.721Z,8.24
2018-01-29T08:03:46.642Z,8.27
2018-01-29T08:04:46.562Z,8.34
2018-01-29T08:05:46.484Z,8.32
2018-01-29T08:06:46.404Z,8.29
2018-01-29T08:07:46.326Z,8.36
2018-01-29T08:08:46.295Z,8.27
2018-01-29T08:09:46.168Z,8.25
2018-01-29T08:10:46.105Z,8.29
2018-01-29T08:11:46.011Z,8.27
2018-01-29T08:12:45.931Z,8.25
2018-01-29T08:13:45.852Z,8.27
2018-01-29T08:14:45.773Z,8.24
2018-01-29T08:15:45.698Z,8.22
2018-01-29T08:16:45.615Z,8.25
2018-01-29T08:17:45.536Z,8.30
2018-01-29T08:18:45.458Z,8.25
2018-01-29T08:19:45.380Z,8.25
2018-01-29T08:20:45.299Z,8.25
2018-01-29T08:21:45.222Z,8.27
2018-01-29T08:22:45.143Z,8.25
2018-01-29T08:23:45.065Z,8.27
2018-01-29T08:24:44.987Z,8.32
2018-01-29T08:25:44.906Z,8.30
2018-01-29T08:26:44.828Z,8.25
2018-01-29T08:27:44.749Z,8.27
2018-01-29T08:28:44.670Z,8.30
2018-01-29T08:29:44.591Z,8.29
2018-01-29T08:30:44.512Z,8.29
2018-01-29T08:31:44.434Z,8.29
2018-01-29T08:32:44.354Z,8.27
2018-01-29T08:33:44.276Z,8.27
2018-01-29T08:34:44.197Z,8.29
2018-01-29T08:35:44.137Z,8.22
2018-01-29T08:36:44.038Z,8.30
2018-01-29T08:37:43.960Z,8.36
2018-01-29T08:38:43.881Z,8.40
2018-01-29T08:39:43.802Z,8.34
2018-01-29T08:40:43.723Z,8.33
2018-01-29T08:41:43.644Z,8.39
2018-01-29T08:42:43.566Z,8.33
2018-01-29T08:43:43.487Z,8.29
2018-01-29T08:44:43.407Z,8.39
2018-01-29T08:45:43.329Z,8.36
2018-01-29T08:46:43.250Z,8.27
2018-01-29T08:47:43.170Z,8.42
2018-01-29T08:48:43.091Z,8.39
2018-01-29T08:49:43.013Z,8.37
2018-01-29T08:50:42.934Z,8.29
2018-01-29T08:51:42.855Z,8.44
2018-01-29T08:52:42.776Z,8.37
2018-01-29T08:53:42.697Z,8.42
2018-01-29T08:54:42.621Z,8.36
2018-01-29T08:55:42.540Z,8.42
2018-01-29T08:56:42.460Z,8.40
2018-01-29T08:57:42.383Z,8.37
2018-01-29T08:58:42.304Z,8.43
2018-01-29T08:59:42.225Z,8.25
2018-01-29T09:00:42.145Z,8.40
2018-01-29T09:01:42.066Z,8.40
2018-01-29T09:02:41.988Z,8.37
2018-01-29T09:03:41.910Z,8.43
2018-01-29T09:04:41.831Z,8.42
2018-01-29T09:05:41.752Z,8.39
2018-01-29T09:06:41.673Z,8.30
2018-01-29T09:07:41.595Z,8.29
2018-01-29T09:08:41.517Z,8.40
2018-01-29T09:09:41.437Z,8.44
2018-01-29T09:10:41.359Z,8.40
2018-01-29T09:11:41.279Z,8.40
2018-01-29T09:12:41.202Z,8.37
2018-01-29T09:13:41.122Z,8.43
2018-01-29T09:14:41.044Z,8.43
2018-01-29T09:15:40.965Z,8.47
2018-01-29T09:16:40.885Z,8.50
2018-01-29T09:17:40.807Z,8.44
2018-01-29T09:18:40.730Z,8.48
2018-01-29T09:19:40.801Z,8.43
2018-01-29T09:20:40.571Z,8.51
2018-01-29T09:21:40.494Z,8.47
2018-01-29T09:22:40.416Z,8.60
2018-01-29T09:23:40.339Z,8.58
2018-01-29T09:24:40.258Z,8.57
2018-01-29T09:25:40.179Z,8.61
2018-01-29T09:26:40.100Z,8.61
2018-01-29T09:27:40.022Z,8.61
2018-01-29T09:28:39.943Z,8.68
2018-01-29T09:29:39.864Z,8.66
2018-01-29T09:30:39.787Z,8.72
2018-01-29T09:31:39.711Z,8.68
2018-01-29T09:32:39.629Z,8.66
2018-01-29T09:33:39.551Z,8.68
2018-01-29T09:34:39.492Z,8.65
2018-01-29T09:35:39.394Z,8.68
2018-01-29T09:36:39.316Z,8.76
2018-01-29T09:37:39.238Z,8.65
2018-01-29T09:38:39.159Z,8.73
2018-01-29T09:39:39.081Z,8.65
2018-01-29T09:40:39.002Z,8.79
2018-01-29T09:41:38.924Z,8.65
2018-01-29T09:42:38.847Z,8.66
2018-01-29T09:43:38.772Z,8.61
2018-01-29T09:44:38.690Z,8.65
2018-01-29T09:45:38.615Z,8.65
2018-01-29T09:46:38.533Z,8.68
2018-01-29T09:47:38.501Z,8.72
2018-01-29T09:48:38.376Z,8.75
2018-01-29T09:49:38.299Z,8.79
2018-01-29T09:50:38.221Z,8.77
2018-01-29T09:51:38.144Z,8.65
2018-01-29T09:52:38.064Z,8.73
2018-01-29T09:53:37.987Z,8.68
2018-01-29T09:54:37.908Z,8.75
2018-01-29T09:55:37.830Z,8.77
2018-01-29T09:56:37.751Z,8.65
2018-01-29T09:57:37.673Z,8.66
2018-01-29T09:58:37.596Z,8.72
2018-01-29T09:59:37.518Z,8.72
2018-01-29T10:00:37.439Z,8.72
2018-01-29T10:01:37.364Z,8.69
2018-01-29T10:02:37.285Z,8.72
2018-01-29T10:03:37.205Z,8.66
2018-01-29T10:04:37.126Z,8.66
2018-01-29T10:05:37.047Z,8.77
2018-01-29T10:06:36.972Z,8.82
2018-01-29T10:07:36.892Z,8.61
2018-01-29T10:08:36.819Z,8.80
2018-01-29T10:09:36.736Z,8.79
2018-01-29T10:10:36.658Z,8.76
2018-01-29T10:11:36.580Z,8.68
2018-01-29T10:12:36.501Z,8.69
2018-01-29T10:13:36.478Z,8.65
2018-01-29T10:14:36.345Z,8.68
2018-01-29T10:15:36.267Z,8.69
2018-01-29T10:16:36.188Z,8.73
2018-01-29T10:17:36.109Z,8.80
2018-01-29T10:18:36.032Z,8.66
2018-01-29T10:19:35.954Z,8.77
2018-01-29T10:20:35.875Z,8.80
2018-01-29T10:21:35.798Z,8.70
2018-01-29T10:22:35.719Z,8.69
2018-01-29T10:23:35.641Z,8.69
2018-01-29T10:24:35.562Z,8.72
2018-01-29T10:25:35.492Z,8.76
2018-01-29T10:26:35.408Z,8.69
2018-01-29T10:27:35.328Z,8.62
2018-01-29T10:28:35.251Z,8.73
2018-01-29T10:29:35.171Z,8.69
2018-01-29T10:30:35.093Z,8.72
2018-01-29T10:31:35.014Z,8.80
2018-01-29T10:32:34.936Z,8.80
2018-01-29T10:33:34.859Z,8.80
2018-01-29T10:34:34.780Z,8.84
2018-01-29T10:35:34.702Z,8.82
2018-01-29T10:36:34.624Z,8.77
2018-01-29T10:37:34.545Z,8.85
2018-01-29T10:38:34.468Z,8.97
2018-01-29T10:39:34.390Z,8.91
2018-01-29T10:40:34.311Z,8.93
2018-01-29T10:41:34.234Z,8.88
2018-01-29T10:42:34.156Z,8.88
2018-01-29T10:43:34.078Z,8.88
2018-01-29T10:44:34.000Z,8.91
2018-01-29T10:45:33.924Z,8.90
2018-01-29T10:46:33.844Z,8.85
2018-01-29T10:47:33.767Z,8.77
2018-01-29T10:48:33.688Z,8.93
2018-01-29T10:49:33.610Z,8.94
2018-01-29T10:50:33.535Z,8.93
2018-01-29T10:51:33.455Z,8.93
2018-01-29T10:52:33.377Z,8.97
2018-01-29T10:53:33.299Z,9.00
2018-01-29T10:54:33.222Z,9.06
2018-01-29T10:55:33.145Z,8.93
2018-01-29T10:56:33.101Z,8.95
2018-01-29T10:57:32.992Z,8.94
2018-01-29T10:58:32.911Z,8.97
2018-01-29T10:59:32.833Z,8.91
2018-01-29T11:00:32.755Z,9.02
2018-01-29T11:01:32.677Z,8.98
2018-01-29T11:02:32.600Z,9.05
2018-01-29T11:03:32.521Z,9.02
2018-01-29T11:04:32.443Z,8.90
2018-01-29T11:05:32.366Z,9.00
2018-01-29T11:06:32.289Z,9.06
2018-01-29T11:07:32.211Z,9.05
2018-01-29T11:08:32.132Z,8.95
2018-01-29T11:09:32.056Z,9.02
2018-01-29T11:10:31.978Z,9.09
2018-01-29T11:11:31.901Z,9.12
2018-01-29T11:12:31.822Z,9.03
2018-01-29T11:13:31.745Z,9.13
2018-01-29T11:14:31.667Z,9.06
2018-01-29T11:15:31.590Z,9.02
2018-01-29T11:16:31.512Z,9.00
2018-01-29T11:17:31.479Z,8.93
2018-01-29T11:18:31.364Z,8.91
2018-01-29T11:19:31.279Z,8.95
2018-01-29T11:20:31.203Z,8.97
2018-01-29T11:21:31.124Z,9.00
2018-01-29T11:22:31.046Z,8.85
2018-01-29T11:23:30.969Z,8.91
2018-01-29T11:24:30.890Z,9.00
2018-01-29T11:25:30.814Z,8.88
2018-01-29T11:26:30.735Z,8.95
2018-01-29T11:27:30.659Z,8.97
2018-01-29T11:28:30.603Z,9.00
2018-01-29T11:29:30.501Z,8.95
2018-01-29T11:30:30.424Z,8.97
2018-01-29T11:31:30.346Z,8.95
2018-01-29T11:32:30.268Z,8.94
2018-01-29T11:33:30.191Z,8.91
2018-01-29T11:34:30.113Z,8.94
2018-01-29T11:35:30.039Z,8.93
2018-01-29T11:36:29.962Z,8.84
2018-01-29T11:37:29.881Z,8.90
2018-01-29T11:38:29.801Z,8.95
2018-01-29T11:39:29.724Z,8.82
2018-01-29T11:40:29.646Z,8.85
2018-01-29T11:41:29.568Z,8.97
2018-01-29T11:42:29.492Z,8.88
2018-01-29T11:43:29.413Z,8.94
2018-01-29T11:44:29.335Z,8.88
2018-01-29T11:45:29.257Z,8.87
2018-01-29T11:46:29.179Z,8.87
2018-01-29T11:47:29.103Z,8.84
2018-01-29T11:48:29.023Z,8.85
2018-01-29T11:49:28.946Z,8.90
2018-01-29T11:50:28.869Z,8.95
2018-01-29T11:51:28.791Z,8.88
2018-01-29T11:52:28.712Z,8.97
2018-01-29T11:53:28.636Z,8.93
2018-01-29T11:54:28.558Z,8.91
2018-01-29T11:55:28.481Z,8.87
2018-01-29T11:56:28.402Z,8.93
2018-01-29T11:57:28.324Z,8.87
2018-01-29T11:58:28.246Z,8.91
2018-01-29T11:59:28.169Z,8.87
2018-01-29T12:00:28.090Z,8.87
2018-01-29T12:01:28.013Z,8.88
2018-01-29T12:02:27.937Z,8.95
2018-01-29T12:03:27.858Z,8.93
2018-01-29T12:04:27.779Z,8.95
2018-01-29T12:05:27.702Z,8.91
2018-01-29T12:06:27.624Z,8.95
2018-01-29T12:07:27.584Z,8.94
2018-01-29T12:08:27.468Z,8.90
2018-01-29T12:09:27.390Z,8.98
2018-01-29T12:10:27.312Z,9.02
2018-01-29T12:11:27.237Z,8.98
2018-01-29T12:12:27.156Z,9.00
2018-01-29T12:13:27.079Z,9.02
2018-01-29T12:14:27.001Z,8.98
2018-01-29T12:15:26.927Z,8.98
2018-01-29T12:16:26.845Z,9.00
2018-01-29T12:17:26.768Z,8.97
2018-01-29T12:18:26.690Z,9.13
2018-01-29T12:19:26.613Z,9.00
2018-01-29T12:20:26.534Z,8.93
2018-01-29T12:21:26.457Z,9.05
2018-01-29T12:22:26.379Z,8.95
2018-01-29T12:23:26.302Z,8.95
2018-01-29T12:24:26.223Z,8.94
2018-01-29T12:25:26.145Z,8.95
2018-01-29T12:26:26.067Z,9.05
2018-01-29T12:27:25.990Z,8.95
2018-01-29T12:28:25.911Z,8.94
2018-01-29T12:29:25.834Z,9.05
2018-01-29T12:30:25.756Z,8.94
2018-01-29T12:31:25.679Z,9.02
2018-01-29T12:32:25.600Z,8.98
2018-01-29T12:33:25.523Z,8.97
2018-01-29T12:34:25.445Z,9.02
2018-01-29T12:35:25.368Z,9.00
2018-01-29T12:36:25.289Z,9.00
2018-01-29T12:37:25.212Z,9.03
2018-01-29T12:38:25.134Z,8.93
2018-01-29T12:39:25.056Z,8.97
2018-01-29T12:40:24.976Z,9.03
2018-01-29T12:41:24.900Z,9.06
2018-01-29T12:42:24.822Z,8.95
2018-01-29T12:43:24.744Z,9.02
2018-01-29T12:44:24.665Z,9.03
2018-01-29T12:45:24.587Z,9.03
2018-01-29T12:46:24.511Z,9.02
2018-01-29T12:47:24.432Z,9.03
2018-01-29T12:48:24.353Z,9.05
2018-01-29T12:49:24.278Z,9.03
2018-01-29T12:50:24.198Z,9.09
2018-01-29T12:51:24.120Z,9.03
2018-01-29T12:52:24.042Z,9.09
2018-01-29T12:53:23.964Z,9.03
2018-01-29T12:54:23.886Z,9.17
2018-01-29T12:55:23.807Z,9.10
2018-01-29T12:56:23.727Z,9.14
2018-01-29T12:57:23.651Z,9.17
2018-01-29T12:58:23.574Z,9.25
2018-01-29T12:59:23.496Z,9.29
2018-01-29T13:00:23.418Z,9.17
2018-01-29T13:01:23.340Z,9.31
2018-01-29T13:02:23.262Z,9.31
2018-01-29T13:03:23.184Z,9.25
2018-01-29T13:04:23.106Z,9.37
2018-01-29T13:05:23.034Z,9.32
2018-01-29T13:06:22.953Z,9.42
2018-01-29T13:07:22.873Z,9.38
2018-01-29T13:08:22.794Z,9.38
2018-01-29T13:09:22.716Z,9.32
2018-01-29T13:10:22.639Z,9.42
2018-01-29T13:11:22.561Z,9.42
2018-01-29T13:12:22.483Z,9.43
2018-01-29T13:13:22.405Z,9.38
2018-01-29T13:14:22.327Z,9.43
2018-01-29T13:15:22.250Z,9.42
2018-01-29T13:16:22.175Z,9.43
2018-01-29T13:17:22.095Z,9.42
2018-01-29T13:18:22.017Z,9.49